Time;durP1;ratioP1;P1;durP2;ratioP2;P2;SDS_P1;SDS_P2;PMS_P1;PMS_P2;Temp;Humidity;BMP_temperature;BMP_pressure;BME280_temperature;BME280_humidity;BME280_pressure;Samples;Min_cycle;Max_cycle;Signal;HPM_P1;HPM_P2
2022/05/06 00:02:21;;;;;;;1.25;1.00;;;;;;;30.47;23.60;98553.97;5068760;28;20048;-80
2022/05/06 00:04:48;;;;;;;1.50;1.35;;;;;;;30.50;23.97;98553.00;5067159;28;20040;-80
2022/05/06 00:07:14;;;;;;;1.45;1.00;;;;;;;30.56;23.37;98556.84;5051548;28;20297;-80
2022/05/06 00:09:42;;;;;;;0.95;0.95;;;;;;;30.70;22.95;98559.09;5065791;28;20036;-80
2022/05/06 00:12:10;;;;;;;2.60;1.00;;;;;;;30.40;23.31;98565.59;5066762;28;20056;-80
2022/05/06 00:14:36;;;;;;;1.83;1.13;;;;;;;30.43;23.69;98567.50;5065695;28;20472;-80
2022/05/06 00:17:06;;;;;;;0.90;0.90;;;;;;;29.98;23.83;98567.22;5070379;28;20055;-80
2022/05/06 00:19:33;;;;;;;0.80;0.77;;;;;;;30.15;23.91;98562.94;5069649;28;20020;-80
2022/05/06 00:21:59;;;;;;;1.27;0.80;;;;;;;30.21;23.50;98561.06;5067216;28;20039;-80
2022/05/06 00:24:25;;;;;;;1.38;0.98;;;;;;;30.20;23.53;98556.63;5068455;28;20028;-80
2022/05/06 00:26:51;;;;;;;1.10;0.70;;;;;;;30.06;23.66;98560.00;5069734;28;20035;-80
2022/05/06 00:29:17;;;;;;;0.85;0.82;;;;;;;29.99;23.81;98568.81;5067967;28;20090;-80
2022/05/06 00:31:43;;;;;;;2.40;1.23;;;;;;;30.12;23.86;98571.53;5067000;28;20502;-80
2022/05/06 00:34:10;;;;;;;2.10;1.90;;;;;;;30.38;23.42;98575.81;5067296;28;20028;-80
2022/05/06 00:36:36;;;;;;;1.85;1.67;;;;;;;30.56;23.19;98598.56;5067794;28;20035;-80
2022/05/06 00:39:02;;;;;;;2.25;1.60;;;;;;;30.16;23.69;98623.97;5063893;28;20584;-80
2022/05/06 00:41:32;;;;;;;1.58;1.27;;;;;;;30.14;23.80;98617.19;5050781;28;20051;-80
2022/05/06 00:43:58;;;;;;;1.42;1.33;;;;;;;30.21;23.76;98619.75;5067111;28;20094;-80
2022/05/06 00:46:24;;;;;;;2.20;1.67;;;;;;;30.45;23.06;98618.84;5065626;28;20036;-79
2022/05/06 00:48:51;;;;;;;2.35;1.80;;;;;;;30.63;22.72;98620.94;5068208;28;20040;-80
2022/05/06 00:51:20;;;;;;;2.22;1.50;;;;;;;30.57;22.74;98620.00;5066338;28;20036;-80
2022/05/06 00:53:47;;;;;;;2.28;2.08;;;;;;;29.99;23.98;98625.44;5068863;28;20032;-80
2022/05/06 00:56:15;;;;;;;1.50;1.40;;;;;;;29.64;24.58;98621.81;5067887;28;20397;-80
2022/05/06 00:58:45;;;;;;;2.35;1.35;;;;;;;29.67;23.96;98617.28;5063936;28;20125;-80
2022/05/06 01:01:11;;;;;;;1.02;1.00;;;;;;;29.77;23.75;98616.94;5067371;28;20043;-80
2022/05/06 01:03:37;;;;;;;1.30;1.20;;;;;;;29.90;23.39;98622.53;5066338;28;20064;-80
2022/05/06 01:06:13;;;;;;;1.17;1.08;;;;;;;29.69;23.54;98620.44;5068461;28;20040;-80
2022/05/06 01:08:40;;;;;;;1.20;1.10;;;;;;;29.76;23.68;98617.38;5066608;28;20154;-80
2022/05/06 01:11:07;;;;;;;1.33;0.90;;;;;;;30.00;23.12;98624.19;5066566;28;20037;-80
2022/05/06 01:13:44;;;;;;;0.90;0.80;;;;;;;30.07;22.90;98621.09;5042261;28;20041;-80
2022/05/06 01:16:12;;;;;;;1.45;1.17;;;;;;;30.29;22.66;98616.19;5023724;28;20033;-80
2022/05/06 01:18:38;;;;;;;0.80;0.80;;;;;;;30.10;22.55;98617.34;5026410;28;20482;-80
2022/05/06 01:21:06;;;;;;;1.02;0.88;;;;;;;30.21;22.62;98619.75;5026305;28;20575;-80
2022/05/06 01:23:33;;;;;;;0.82;0.82;;;;;;;29.68;22.69;98616.06;5022522;28;20033;-80
2022/05/06 01:25:59;;;;;;;0.75;0.75;;;;;;;29.44;23.45;98615.69;5027226;28;20030;-79
2022/05/06 01:28:27;;;;;;;0.90;0.80;;;;;;;29.58;22.92;98617.22;5025337;28;20062;-79
2022/05/06 01:31:00;;;;;;;0.82;0.82;;;;;;;29.96;22.67;98618.66;5025455;28;20029;-80
2022/05/06 01:33:28;;;;;;;1.13;0.98;;;;;;;30.06;22.42;98616.66;5022266;28;20550;-80
2022/05/06 01:36:05;;;;;;;0.95;0.88;;;;;;;29.53;22.81;98620.63;5026239;28;20033;-80
2022/05/06 01:38:42;;;;;;;2.20;0.70;;;;;;;29.60;23.44;98620.38;5024594;28;20045;-80
2022/05/06 01:41:14;;;;;;;1.00;0.95;;;;;;;29.76;22.94;98623.06;5024790;28;20456;-80
2022/05/06 01:43:43;;;;;;;1.10;1.00;;;;;;;30.03;22.43;98623.28;5023783;28;20079;-80
2022/05/06 01:46:21;;;;;;;1.25;0.88;;;;;;;30.20;22.26;98633.13;5024927;28;20072;-80
2022/05/06 01:48:49;;;;;;;1.17;1.08;;;;;;;30.38;22.11;98638.16;5023259;28;20211;-80
2022/05/06 01:51:16;;;;;;;1.30;1.02;;;;;;;30.40;22.22;98632.81;5024572;28;20041;-80
2022/05/06 01:53:43;;;;;;;1.02;0.95;;;;;;;29.93;22.94;98632.94;5024618;28;20128;-80
2022/05/06 01:56:09;;;;;;;0.73;0.73;;;;;;;29.59;23.50;98636.59;5022886;28;20496;-80
2022/05/06 01:58:35;;;;;;;1.02;1.00;;;;;;;29.25;23.78;98639.41;5022079;28;20109;-80
2022/05/06 02:01:02;;;;;;;1.60;1.23;;;;;;;29.15;24.05;98649.03;5023575;28;20429;-80
2022/05/06 02:06:13;;;;;;;1.52;0.95;;;;;;;28.73;24.85;98643.50;5024449;28;20053;-80
2022/05/06 02:08:39;;;;;;;1.00;0.88;;;;;;;28.84;24.40;98648.03;5025219;28;20120;-80
2022/05/06 02:11:06;;;;;;;1.10;1.00;;;;;;;29.05;24.32;98647.31;5026569;28;20403;-80
2022/05/06 02:13:34;;;;;;;1.45;1.30;;;;;;;29.51;24.46;98651.44;5037210;28;20120;-80
2022/05/06 02:16:02;;;;;;;1.17;1.08;;;;;;;29.97;23.68;98644.91;5067967;28;20037;-80
2022/05/06 02:18:28;;;;;;;1.25;1.15;;;;;;;30.30;23.14;98645.28;5065695;28;20514;-80
2022/05/06 02:20:57;;;;;;;1.30;1.20;;;;;;;29.92;23.64;98651.19;5066943;28;20043;-79
2022/05/06 02:23:24;;;;;;;3.05;1.83;;;;;;;30.15;23.63;98656.41;5066619;28;20131;-80
2022/05/06 02:25:50;;;;;;;2.10;1.60;;;;;;;30.01;23.92;98654.88;5051453;28;20115;-80
2022/05/06 02:28:18;;;;;;;2.10;1.45;;;;;;;29.80;24.26;98654.88;5064336;28;20370;-80
2022/05/06 02:33:31;;;;;;;1.60;1.27;;;;;;;30.55;23.12;98653.69;5063921;28;20043;-80
2022/05/06 02:35:58;;;;;;;1.48;1.38;;;;;;;30.74;22.90;98652.47;5066264;28;20028;-80
2022/05/06 02:38:25;;;;;;;1.30;1.00;;;;;;;30.85;22.86;98652.88;5067268;28;20035;-80
2022/05/06 02:40:51;;;;;;;1.88;1.27;;;;;;;30.96;22.58;98658.91;5065097;28;20119;-80
2022/05/06 02:43:17;;;;;;;1.30;1.20;;;;;;;30.77;22.58;98655.19;5063208;28;20021;-80
2022/05/06 02:45:44;;;;;;;3.38;1.20;;;;;;;30.05;23.65;98655.53;5068225;28;20504;-80
2022/05/06 02:48:11;;;;;;;1.00;1.00;;;;;;;29.59;24.50;98658.44;5065848;28;20050;-80
2022/05/06 02:50:37;;;;;;;2.08;1.13;;;;;;;29.94;23.92;98657.97;5065357;28;20052;-80
2022/05/06 02:53:04;;;;;;;1.13;1.02;;;;;;;30.45;23.43;98667.00;5068705;28;20108;-80
2022/05/06 02:55:31;;;;;;;1.63;1.10;;;;;;;30.69;22.89;98668.06;5065278;28;20032;-80
2022/05/06 02:57:58;;;;;;;2.70;1.15;;;;;;;30.95;22.61;98679.25;5066885;28;20489;-80
2022/05/06 03:00:24;;;;;;;1.75;1.30;;;;;;;31.15;22.68;98682.47;5065844;28;20036;-80
2022/05/06 03:02:51;;;;;;;2.70;1.17;;;;;;;31.27;22.21;98695.75;5066031;28;20097;-80
2022/05/06 03:05:17;;;;;;;1.77;1.35;;;;;;;31.15;22.35;98691.75;5065424;28;20562;-80
2022/05/06 03:07:43;;;;;;;1.33;1.00;;;;;;;31.07;22.60;98710.31;5065189;28;20460;-80
2022/05/06 03:10:10;;;;;;;1.73;1.48;;;;;;;30.86;23.14;98721.69;5065612;28;20032;-80
2022/05/06 03:12:37;;;;;;;1.70;1.38;;;;;;;30.57;23.42;98716.34;5063251;28;20035;-81
2022/05/06 03:15:04;;;;;;;1.55;1.45;;;;;;;30.26;23.74;98721.16;5065704;28;20028;-80
2022/05/06 03:17:31;;;;;;;1.25;1.10;;;;;;;30.29;23.74;98715.38;5065554;28;20033;-80
2022/05/06 03:19:58;;;;;;;2.45;1.52;;;;;;;29.97;24.36;98715.72;5065092;28;20033;-80
2022/05/06 03:22:24;;;;;;;2.72;1.25;;;;;;;29.87;24.63;98709.19;5062029;28;20048;-80
2022/05/06 03:24:51;;;;;;;1.60;1.00;;;;;;;30.27;24.13;98709.34;5065785;28;20060;-80
2022/05/06 03:30:02;;;;;;;2.22;1.10;;;;;;;31.05;23.02;98706.38;5064579;28;20527;-80
2022/05/06 03:32:29;;;;;;;1.80;1.20;;;;;;;31.28;22.34;98706.63;5064588;28;20085;-80
2022/05/06 03:34:56;;;;;;;1.75;1.00;;;;;;;31.38;22.60;98711.06;5066828;28;20041;-80
2022/05/06 03:37:22;;;;;;;1.52;1.42;;;;;;;31.15;22.75;98711.63;5047873;28;20024;-80
2022/05/06 03:39:48;;;;;;;1.33;1.23;;;;;;;30.55;23.66;98713.19;5065471;28;20170;-80
2022/05/06 03:42:14;;;;;;;1.48;1.15;;;;;;;30.25;23.98;98711.06;5049168;28;20121;-79
2022/05/06 03:44:40;;;;;;;2.38;1.38;;;;;;;29.99;24.34;98707.59;5048208;28;20581;-80
2022/05/06 03:47:07;;;;;;;2.15;1.15;;;;;;;30.24;24.08;98709.50;5045784;28;20046;-80
2022/05/06 03:49:33;;;;;;;1.55;1.42;;;;;;;30.22;24.03;98707.13;5061699;28;20045;-80
2022/05/06 03:52:00;;;;;;;1.90;1.52;;;;;;;29.99;24.22;98708.34;5065102;28;20033;-80
2022/05/06 03:54:26;;;;;;;1.60;1.33;;;;;;;30.04;24.19;98704.13;5062600;28;20039;-80
2022/05/06 03:56:52;;;;;;;1.42;1.20;;;;;;;30.02;24.25;98707.44;5065502;28;20477;-80
2022/05/06 03:59:19;;;;;;;2.25;1.50;;;;;;;30.01;24.25;98702.25;5066328;28;20082;-80
2022/05/06 04:01:45;;;;;;;1.83;1.60;;;;;;;29.79;24.67;98696.53;5064834;28;20059;-80
2022/05/06 04:04:11;;;;;;;1.40;1.30;;;;;;;29.68;24.88;98700.97;5065031;28;20047;-79
2022/05/06 04:06:37;;;;;;;1.60;1.30;;;;;;;29.65;25.06;98705.50;5065025;28;20512;-79
2022/05/06 04:09:04;;;;;;;2.45;1.52;;;;;;;29.79;25.27;98695.75;5065666;28;20531;-79
2022/05/06 04:11:30;;;;;;;1.67;1.55;;;;;;;30.07;24.65;98683.41;5046673;28;20144;-80
2022/05/06 04:13:56;;;;;;;1.52;1.40;;;;;;;29.89;24.83;98697.41;5065257;28;20106;-79
2022/05/06 04:16:24;;;;;;;1.83;1.35;;;;;;;29.73;25.28;98694.72;5062795;28;20028;-79
2022/05/06 04:18:50;;;;;;;1.38;1.25;;;;;;;30.20;24.43;98689.00;5066564;28;20032;-79
2022/05/06 04:24:00;;;;;;;1.45;1.35;;;;;;;30.07;25.14;98686.22;5065356;28;20075;-79
2022/05/06 04:26:26;;;;;;;1.52;1.42;;;;;;;30.34;24.94;98692.09;5065014;28;20039;-79
2022/05/06 04:28:53;;;;;;;1.88;1.30;;;;;;;30.26;24.86;98687.16;5065197;28;20028;-79
2022/05/06 04:31:18;;;;;;;2.17;1.48;;;;;;;29.90;25.13;98694.13;5063893;28;20154;-79
2022/05/06 04:33:45;;;;;;;3.00;1.17;;;;;;;29.81;25.46;98699.72;5067539;28;20060;-79
2022/05/06 04:36:11;;;;;;;1.80;1.50;;;;;;;30.23;25.13;98691.69;5070233;28;20039;-79
2022/05/06 04:38:37;;;;;;;1.00;1.00;;;;;;;30.80;24.13;98693.16;5069385;28;20049;-79
2022/05/06 04:41:03;;;;;;;1.67;1.58;;;;;;;31.15;23.63;98697.44;5071796;28;20035;-79
2022/05/06 04:43:29;;;;;;;2.03;1.48;;;;;;;31.41;23.59;98701.59;5066504;28;20110;-79
2022/05/06 04:45:56;;;;;;;1.45;1.35;;;;;;;31.34;23.62;98703.97;5066035;28;20073;-79
2022/05/06 04:48:22;;;;;;;1.23;1.13;;;;;;;31.18;23.85;98710.66;5067769;28;20486;-79
2022/05/06 04:50:49;;;;;;;1.55;1.23;;;;;;;30.78;24.36;98707.03;5067050;28;20043;-79
2022/05/06 04:53:16;;;;;;;1.80;1.38;;;;;;;31.08;24.12;98708.28;5068137;28;20036;-79
2022/05/06 04:55:49;;;;;;;5.00;1.95;;;;;;;31.50;23.57;98714.25;5065961;28;20375;-79
2022/05/06 04:58:16;;;;;;;1.95;1.30;;;;;;;31.67;23.23;98712.72;5067707;28;20452;-79
2022/05/06 05:00:42;;;;;;;1.10;1.00;;;;;;;31.28;24.08;98705.81;5066088;28;20787;-80
2022/05/06 05:03:08;;;;;;;1.40;1.30;;;;;;;31.35;23.88;98712.00;5066949;28;20029;-80
2022/05/06 05:05:35;;;;;;;1.52;1.20;;;;;;;31.31;23.90;98713.41;5068104;28;20053;-79
2022/05/06 05:08:01;;;;;;;1.30;1.20;;;;;;;30.86;24.48;98707.50;5070949;28;20032;-79
2022/05/06 05:10:27;;;;;;;1.88;1.23;;;;;;;31.04;24.34;98708.41;5071390;28;20032;-79
2022/05/06 05:12:53;;;;;;;2.38;1.48;;;;;;;31.05;24.32;98700.69;5069042;28;20047;-80
2022/05/06 05:15:20;;;;;;;1.92;1.45;;;;;;;30.53;25.36;98715.69;5070719;28;20024;-81
2022/05/06 05:17:46;;;;;;;1.52;1.42;;;;;;;30.13;25.99;98700.59;5068317;28;20101;-80
2022/05/06 05:20:16;;;;;;;1.50;1.40;;;;;;;29.97;26.16;98707.22;5069408;28;20524;-80
2022/05/06 05:22:42;;;;;;;1.33;1.23;;;;;;;30.14;26.27;98708.63;5068031;28;20505;-82
2022/05/06 05:25:09;;;;;;;1.45;1.35;;;;;;;30.88;25.09;98700.16;5063679;28;20410;-84
2022/05/06 05:27:39;;;;;;;1.38;1.27;;;;;;;31.45;24.14;98714.88;5064089;28;20117;-80
2022/05/06 05:30:08;;;;;;;1.20;1.10;;;;;;;31.82;23.55;98708.00;5054150;28;20051;-79
2022/05/06 05:32:34;;;;;;;1.23;1.13;;;;;;;31.64;23.82;98711.63;5071507;28;20032;-80
2022/05/06 05:35:01;;;;;;;1.45;1.35;;;;;;;31.25;24.60;98706.78;5071198;28;20511;-80
2022/05/06 05:37:28;;;;;;;1.48;1.33;;;;;;;31.35;24.77;98716.88;5066942;28;20040;-79
2022/05/06 05:39:54;;;;;;;1.63;1.52;;;;;;;31.28;24.47;98708.66;5065024;28;20047;-79
2022/05/06 05:42:21;;;;;;;2.45;1.77;;;;;;;30.69;25.44;98710.59;5071562;28;20111;-81
2022/05/06 05:50:18;;;;;;;2.55;1.77;;;;;;;30.43;26.21;98720.53;5066959;28;20067;-81
2022/05/06 05:52:44;;;;;;;1.70;1.60;;;;;;;30.31;26.26;98707.19;5071945;28;20029;-80
2022/05/06 05:55:11;;;;;;;2.88;1.77;;;;;;;30.14;26.77;98714.28;5066438;28;20031;-80
2022/05/06 05:57:38;;;;;;;1.95;1.80;;;;;;;30.32;26.54;98722.91;5067355;28;20436;-79
2022/05/06 06:00:05;;;;;;;1.95;1.40;;;;;;;30.86;25.41;98728.16;5071853;28;20639;-80
2022/05/06 06:02:31;;;;;;;1.60;1.50;;;;;;;31.27;24.74;98724.13;5069047;28;20067;-79
2022/05/06 06:04:58;;;;;;;1.40;1.30;;;;;;;31.14;25.02;98723.41;5069170;28;20082;-79
2022/05/06 06:07:24;;;;;;;1.73;1.63;;;;;;;31.07;25.38;98735.84;5071975;28;20105;-80
2022/05/06 06:09:50;;;;;;;1.40;1.30;;;;;;;31.37;24.92;98739.91;5067447;28;20055;-79
2022/05/06 06:12:16;;;;;;;1.73;1.30;;;;;;;31.84;24.46;98728.19;5069444;28;20067;-79
2022/05/06 06:14:42;;;;;;;2.05;1.83;;;;;;;32.21;23.85;98735.50;5068773;28;20041;-79
2022/05/06 06:17:08;;;;;;;3.17;1.60;;;;;;;32.47;24.15;98719.69;5071578;28;20036;-79
2022/05/06 06:19:34;;;;;;;1.52;1.40;;;;;;;32.42;24.00;98731.69;5072117;28;20024;-79
2022/05/06 06:22:01;;;;;;;1.60;1.30;;;;;;;32.52;24.08;98726.81;5069795;28;20094;-79
2022/05/06 06:24:28;;;;;;;2.33;1.40;;;;;;;32.73;23.99;98737.19;5070335;28;20029;-79
2022/05/06 06:26:54;;;;;;;1.70;1.60;;;;;;;33.02;23.81;98736.66;5070647;28;20055;-79
2022/05/06 06:29:20;;;;;;;1.52;1.42;;;;;;;32.75;23.53;98743.19;5070340;28;20032;-79
2022/05/06 06:31:46;;;;;;;1.35;1.25;;;;;;;32.22;24.51;98739.13;5070831;28;20545;-79
2022/05/06 06:34:13;;;;;;;3.28;1.52;;;;;;;32.13;25.25;98745.63;5069811;28;20107;-79
2022/05/06 06:36:39;;;;;;;1.30;1.20;;;;;;;32.16;24.61;98743.88;5068519;28;20024;-79
2022/05/06 06:39:05;;;;;;;1.33;1.23;;;;;;;32.19;25.32;98743.72;5069083;28;20040;-79
2022/05/06 06:41:31;;;;;;;1.63;1.30;;;;;;;32.50;24.93;98740.72;5069314;28;20033;-79
2022/05/06 06:43:57;;;;;;;1.92;1.83;;;;;;;32.73;24.19;98742.88;5069855;28;20044;-79
2022/05/06 06:46:23;;;;;;;1.58;1.48;;;;;;;32.87;24.19;98747.91;5068129;28;20021;-79
2022/05/06 06:48:49;;;;;;;1.60;1.08;;;;;;;33.03;23.75;98733.31;5070873;28;20085;-79
2022/05/06 06:51:15;;;;;;;2.20;1.63;;;;;;;33.10;23.52;98741.53;5069602;28;20032;-79
2022/05/06 06:53:41;;;;;;;2.15;1.77;;;;;;;33.13;23.92;98743.41;5069908;28;20036;-79
2022/05/06 06:56:07;;;;;;;2.17;1.10;;;;;;;33.29;23.71;98745.06;5068445;28;20108;-79
2022/05/06 06:58:33;;;;;;;2.05;1.45;;;;;;;33.41;23.60;98742.03;5069203;28;20037;-79
2022/05/06 07:00:59;;;;;;;1.95;1.70;;;;;;;33.58;23.79;98744.50;5067787;28;20039;-79
2022/05/06 07:03:26;;;;;;;1.92;1.77;;;;;;;33.59;23.32;98743.19;5068546;28;20033;-79
2022/05/06 07:14:06;;;;;;;2.03;1.83;;;;;;;33.63;24.23;98750.28;5068490;28;20053;-78
2022/05/06 07:16:32;;;;;;;2.10;1.90;;;;;;;33.72;23.53;98752.31;5060133;28;20474;-80
2022/05/06 07:18:58;;;;;;;2.10;1.75;;;;;;;33.81;24.14;98755.09;5062753;28;20097;-79
2022/05/06 07:21:24;;;;;;;2.33;2.05;;;;;;;33.92;23.86;98756.13;5064287;28;20451;-78
2022/05/06 07:23:50;;;;;;;1.98;1.65;;;;;;;33.76;23.36;98753.72;5068554;28;20029;-79
2022/05/06 07:26:16;;;;;;;2.30;1.65;;;;;;;33.61;24.14;98755.69;5070246;28;20058;-79
2022/05/06 07:28:42;;;;;;;3.67;1.85;;;;;;;33.75;24.33;98754.97;5069171;28;20162;-79
2022/05/06 07:31:09;;;;;;;2.28;2.08;;;;;;;34.03;23.64;98752.75;5069425;28;20040;-79
2022/05/06 07:33:37;;;;;;;2.65;2.45;;;;;;;34.22;23.37;98756.22;5067606;28;20381;-80
2022/05/06 07:36:04;;;;;;;2.28;1.85;;;;;;;34.36;23.49;98761.19;5069770;28;20142;-81
2022/05/06 07:38:32;;;;;;;3.60;1.85;;;;;;;34.36;23.21;98759.13;5069737;28;20025;-81
2022/05/06 07:40:59;;;;;;;2.47;2.15;;;;;;;34.48;23.46;98766.63;5065994;28;20051;-81
2022/05/06 07:43:25;;;;;;;2.13;1.90;;;;;;;34.54;23.48;98766.75;5066399;28;20038;-80
2022/05/06 07:45:52;;;;;;;1.98;1.65;;;;;;;34.61;22.99;98767.16;5064323;28;20031;-79
2022/05/06 07:48:18;;;;;;;3.58;1.70;;;;;;;34.52;23.50;98772.13;5072768;28;20032;-78
2022/05/06 07:50:45;;;;;;;1.80;1.70;;;;;;;34.52;23.39;98780.69;5054076;28;20260;-78
2022/05/06 07:53:15;;;;;;;1.77;1.65;;;;;;;34.46;23.70;98776.94;5072060;28;20048;-78
2022/05/06 07:55:42;;;;;;;;;;;;;;;34.40;23.84;98776.81;5062531;28;20376;-78
2022/05/06 07:58:08;;;;;;;3.63;1.83;;;;;;;34.58;23.40;98778.75;5034815;28;19913;-78
2022/05/06 08:00:35;;;;;;;2.10;1.65;;;;;;;34.47;23.98;98787.84;5050333;28;20035;-78
2022/05/06 08:05:47;;;;;;;2.35;1.55;;;;;;;34.64;23.90;98788.19;5071554;28;20171;-78
2022/05/06 08:08:14;;;;;;;1.65;1.15;;;;;;;34.68;22.97;98783.88;5068942;28;20028;-79
2022/05/06 08:10:40;;;;;;;2.75;1.40;;;;;;;34.77;23.45;98790.78;5072844;28;20028;-79
2022/05/06 08:13:07;;;;;;;1.30;1.20;;;;;;;34.79;23.18;98791.88;5063147;28;20112;-78
2022/05/06 08:15:33;;;;;;;1.40;1.30;;;;;;;34.77;23.40;98785.06;5067435;28;20033;-78
2022/05/06 08:17:59;;;;;;;3.15;1.60;;;;;;;34.67;23.15;98788.03;5072712;28;20024;-79
2022/05/06 08:20:25;;;;;;;1.88;1.45;;;;;;;34.71;23.25;98785.75;5072785;28;20493;-79
2022/05/06 08:22:51;;;;;;;1.60;1.42;;;;;;;34.77;23.12;98791.56;5071904;28;20576;-79
2022/05/06 08:25:18;;;;;;;1.40;1.30;;;;;;;34.85;23.19;98797.66;5073308;28;20481;-79
2022/05/06 08:27:45;;;;;;;1.73;1.58;;;;;;;34.57;22.62;98800.78;5069110;28;20505;-81
2022/05/06 08:30:13;;;;;;;1.40;1.20;;;;;;;34.11;23.67;98799.56;5070227;28;20051;-79
2022/05/06 08:32:40;;;;;;;2.10;1.55;;;;;;;34.01;23.58;98798.00;5073914;28;20028;-79
2022/05/06 08:35:08;;;;;;;1.30;1.20;;;;;;;33.94;23.61;98795.53;5054300;28;20028;-78
2022/05/06 08:37:41;;;;;;;1.60;1.50;;;;;;;34.05;24.07;98793.72;5074159;28;20039;-78
2022/05/06 08:40:09;;;;;;;2.83;2.63;;;;;;;34.03;23.15;98798.34;5072839;28;20044;-78
2022/05/06 08:42:35;;;;;;;2.40;1.65;;;;;;;34.04;24.33;98799.94;5074709;28;20051;-79
2022/05/06 08:50:50;;;;;;;2.10;1.90;;;;;;;34.39;23.23;98803.78;5071608;28;20458;-80
2022/05/06 08:53:17;;;;;;;1.83;1.35;;;;;;;34.42;23.40;98808.50;5053800;28;20032;-81
2022/05/06 08:55:43;;;;;;;1.75;1.65;;;;;;;34.28;23.70;98811.31;5069934;28;20056;-81
2022/05/06 08:58:09;;;;;;;2.90;2.53;;;;;;;34.04;23.25;98817.03;5071851;28;20063;-80
2022/05/06 09:00:36;;;;;;;2.67;1.75;;;;;;;33.88;24.03;98811.72;5066617;28;20090;-80
2022/05/06 09:03:02;;;;;;;1.85;1.55;;;;;;;34.13;24.33;98810.47;5073886;28;20025;-80
2022/05/06 09:05:28;;;;;;;2.35;1.73;;;;;;;34.33;23.43;98804.94;5074142;28;20025;-80
2022/05/06 09:07:59;;;;;;;2.35;2.00;;;;;;;34.31;23.12;98807.50;5073473;28;20480;-80
2022/05/06 09:10:26;;;;;;;2.63;2.08;;;;;;;34.08;23.37;98809.06;5069174;28;20033;-80
2022/05/06 09:13:00;;;;;;;2.22;1.83;;;;;;;34.04;24.49;98819.88;5054430;28;20029;-80
2022/05/06 09:18:21;;;;;;;1.98;1.83;;;;;;;34.79;23.88;98813.91;5073019;28;20043;-80
2022/05/06 09:20:47;;;;;;;2.33;1.38;;;;;;;35.00;23.18;98813.53;5073132;28;20545;-80
2022/05/06 09:23:42;;;;;;;2.22;1.75;;;;;;;34.87;23.16;98809.41;5074476;28;20079;-80
2022/05/06 09:26:18;;;;;;;2.85;2.38;;;;;;;35.04;22.88;98816.19;5056945;28;20126;-80
2022/05/06 09:28:44;;;;;;;2.47;2.13;;;;;;;35.07;22.83;98818.09;5072551;28;20389;-80
2022/05/06 09:31:11;;;;;;;2.97;2.38;;;;;;;34.71;22.48;98822.06;5056617;28;20032;-80
2022/05/06 09:33:40;;;;;;;3.15;2.28;;;;;;;34.54;23.28;98824.56;5052726;28;20071;-81
2022/05/06 09:36:26;;;;;;;2.75;2.55;;;;;;;34.44;23.40;98820.22;5070873;28;20032;-81
2022/05/06 09:39:05;;;;;;;7.80;3.25;;;;;;;34.43;23.28;98820.69;5074103;28;20033;-80
2022/05/06 09:41:32;;;;;;;3.25;3.05;;;;;;;34.33;23.70;98819.97;5073883;28;20059;-80
2022/05/06 09:44:00;;;;;;;2.90;2.70;;;;;;;33.86;23.92;98822.81;5073893;28;20040;-80
2022/05/06 09:46:26;;;;;;;3.58;3.28;;;;;;;33.75;23.71;98823.34;5070444;28;20031;-80
2022/05/06 09:48:56;;;;;;;5.13;3.63;;;;;;;34.15;23.28;98825.03;5074037;28;20037;-80
2022/05/06 09:51:34;;;;;;;5.35;3.75;;;;;;;34.05;23.67;98819.38;5074267;28;20424;-80
2022/05/06 09:54:03;;;;;;;3.72;3.40;;;;;;;33.89;23.09;98818.97;5069497;28;20064;-80
2022/05/06 09:56:29;;;;;;;3.50;3.00;;;;;;;33.75;24.09;98817.63;5070575;28;20031;-80
2022/05/06 09:58:59;;;;;;;3.95;3.38;;;;;;;34.03;23.45;98821.13;5065636;28;20451;-80
2022/05/06 10:01:26;;;;;;;4.20;3.30;;;;;;;33.76;23.47;98812.75;5073392;28;20478;-80
2022/05/06 10:03:55;;;;;;;3.55;3.15;;;;;;;33.94;24.27;98821.16;5074113;28;20028;-80
2022/05/06 10:06:28;;;;;;;6.47;4.95;;;;;;;33.78;23.71;98822.38;5072693;28;20048;-80
2022/05/06 10:09:00;;;;;;;4.13;3.72;;;;;;;34.06;24.41;98820.19;5074082;28;20123;-80
2022/05/06 10:11:28;;;;;;;2.75;2.55;;;;;;;34.32;23.17;98823.31;5052085;28;20086;-81
2022/05/06 10:13:58;;;;;;;3.47;3.17;;;;;;;34.41;23.47;98820.38;5048505;28;20128;-80
2022/05/06 10:16:37;;;;;;;4.20;3.83;;;;;;;34.66;23.22;98829.22;5033147;28;20098;-80
2022/05/06 10:19:23;;;;;;;3.30;3.00;;;;;;;34.78;22.68;98815.97;5033654;28;20426;-80
2022/05/06 10:21:50;;;;;;;4.35;3.47;;;;;;;34.43;22.88;98830.03;5031217;28;20530;-80
2022/05/06 10:24:17;;;;;;;4.13;3.05;;;;;;;34.44;22.79;98823.06;5033826;28;20040;-80
2022/05/06 10:26:45;;;;;;;3.33;3.03;;;;;;;34.61;22.87;98829.13;5033206;28;20028;-80
2022/05/06 10:32:25;;;;;;;3.40;3.10;;;;;;;34.02;22.39;98822.41;5017078;28;20134;-80
2022/05/06 10:35:04;;;;;;;3.67;3.05;;;;;;;33.93;23.26;98813.91;5033681;28;20530;-80
2022/05/06 10:37:39;;;;;;;3.47;2.72;;;;;;;34.29;23.57;98827.13;5033516;28;20091;-80
2022/05/06 10:40:29;;;;;;;3.05;2.63;;;;;;;34.03;22.02;98821.13;5031386;28;20041;-81
2022/05/06 10:42:56;;;;;;;4.13;3.53;;;;;;;34.09;22.45;98830.63;5022827;28;20033;-80
2022/05/06 10:45:30;;;;;;;2.95;2.72;;;;;;;34.14;22.75;98827.09;5032990;28;20570;-81
2022/05/06 10:47:57;;;;;;;4.18;3.58;;;;;;;33.82;22.76;98820.13;5033496;28;20021;-81
2022/05/06 10:50:25;;;;;;;3.65;2.92;;;;;;;33.49;23.71;98825.03;5032607;28;20034;-80
2022/05/06 10:52:52;;;;;;;5.50;3.20;;;;;;;33.20;23.67;98816.28;5033664;28;20116;-80
2022/05/06 10:55:19;;;;;;;3.10;2.80;;;;;;;32.90;23.57;98811.59;5033508;28;20029;-80
2022/05/06 10:57:53;;;;;;;3.83;3.53;;;;;;;32.60;24.08;98811.31;5032460;28;20072;-80
2022/05/06 11:00:22;;;;;;;4.55;3.83;;;;;;;33.13;23.31;98810.94;5027540;28;20041;-80
2022/05/06 11:02:48;;;;;;;3.95;3.47;;;;;;;33.32;23.27;98812.44;5032308;28;20037;-80
2022/05/06 11:05:16;;;;;;;4.40;4.03;;;;;;;33.75;23.08;98799.78;5032871;28;20422;-81
2022/05/06 11:07:44;;;;;;;4.38;3.55;;;;;;;33.70;22.87;98803.28;5032994;28;20593;-81
2022/05/06 11:10:21;;;;;;;4.00;3.10;;;;;;;34.09;22.97;98802.13;5033074;28;20422;-81
2022/05/06 11:12:49;;;;;;;4.72;3.78;;;;;;;34.33;22.42;98800.00;5027800;28;20030;-82
2022/05/06 11:15:21;;;;;;;3.05;2.72;;;;;;;34.71;22.81;98802.09;5064772;28;20108;-81
2022/05/06 11:17:48;;;;;;;3.55;3.20;;;;;;;34.23;22.49;98812.78;5072786;28;20029;-80
2022/05/06 11:20:22;;;;;;;2.90;2.60;;;;;;;33.83;22.82;98800.97;5072236;28;20032;-80
2022/05/06 11:22:52;;;;;;;3.97;3.08;;;;;;;34.18;23.19;98799.19;5071704;28;20036;-80
2022/05/06 11:25:20;;;;;;;4.30;3.85;;;;;;;34.43;22.47;98797.88;5063385;28;20033;-81
2022/05/06 11:27:46;;;;;;;5.47;4.22;;;;;;;34.43;21.89;98792.97;5053051;28;20029;-81
2022/05/06 11:30:19;;;;;;;4.95;3.28;;;;;;;34.22;22.42;98801.84;5060030;28;20067;-81
2022/05/06 11:32:52;;;;;;;3.90;3.47;;;;;;;33.81;22.93;98795.00;5073355;28;20039;-81
2022/05/06 11:35:21;;;;;;;3.78;3.25;;;;;;;34.12;22.25;98795.44;5070088;28;20060;-81
2022/05/06 11:37:48;;;;;;;5.05;4.55;;;;;;;34.06;21.96;98794.53;5070207;28;23293;-80
2022/05/06 11:42:53;;;;;;;4.88;4.13;;;;;;;34.15;23.02;98796.50;5071019;28;20094;-80
2022/05/06 11:48:13;;;;;;;8.32;3.63;;;;;;;34.00;22.78;98805.00;5062935;28;20098;-81
2022/05/06 11:50:41;;;;;;;5.40;4.18;;;;;;;34.28;22.44;98800.72;5048403;28;20558;-80
2022/05/06 11:53:14;;;;;;;6.00;4.25;;;;;;;34.29;22.63;98798.63;5068318;28;20049;-81
2022/05/06 11:55:46;;;;;;;3.65;3.35;;;;;;;34.57;22.67;98797.16;5075733;28;20039;-80
2022/05/06 11:58:16;;;;;;;3.22;2.75;;;;;;;34.79;22.00;98799.63;5073331;28;20046;-81
2022/05/06 12:00:44;;;;;;;3.90;3.50;;;;;;;34.34;22.82;98793.03;5076052;28;20119;-81
2022/05/06 12:03:12;;;;;;;3.75;3.45;;;;;;;34.40;22.69;98796.03;5076478;28;20037;-81
2022/05/06 12:05:40;;;;;;;6.18;4.38;;;;;;;34.38;23.49;98795.72;5076521;28;20103;-81
2022/05/06 12:08:07;;;;;;;7.60;4.43;;;;;;;34.41;22.61;98786.97;5075839;28;20028;-80
2022/05/06 12:10:36;;;;;;;5.55;4.07;;;;;;;34.34;22.22;98792.25;5074874;28;20033;-81
2022/05/06 12:13:10;;;;;;;6.40;4.72;;;;;;;33.46;23.62;98776.78;5056213;28;20043;-81
2022/05/06 12:15:41;;;;;;;6.10;4.05;;;;;;;33.06;24.01;98779.97;5076514;28;20402;-81
2022/05/06 12:18:09;;;;;;;4.13;3.72;;;;;;;33.58;23.79;98779.47;5074296;28;20162;-80
2022/05/06 12:20:39;;;;;;;5.53;3.72;;;;;;;34.17;22.82;98777.66;5073176;28;20097;-80
2022/05/06 12:23:06;;;;;;;6.50;4.20;;;;;;;34.32;22.50;98772.00;5073952;28;20037;-80